Time;durP1;ratioP1;P1;durP2;ratioP2;P2;SDS_P1;SDS_P2;PMS_P1;PMS_P2;Temp;Humidity;BMP_temperature;BMP_pressure;BME280_temperature;BME280_humidity;BME280_pressure;Samples;Min_cycle;Max_cycle;Signal;HPM_P1;HPM_P2
2021/08/30 00:02:25;;;;;;;20.15;13.85;;;;;;;;;;5071707;28;20119;-85
2021/08/30 00:04:51;;;;;;;19.60;14.77;;;;;;;;;;5071274;28;20048;-85
2021/08/30 00:07:17;;;;;;;17.90;13.52;;;;;;;;;;5071491;28;20389;-85
2021/08/30 00:09:43;;;;;;;26.67;14.85;;;;;;;;;;5070269;28;20048;-87
2021/08/30 00:12:10;;;;;;;20.73;13.98;;;;;;;;;;5071294;28;20045;-86
2021/08/30 00:14:38;;;;;;;19.70;14.75;;;;;;;;;;5071129;28;20043;-86
2021/08/30 00:17:04;;;;;;;19.48;14.15;;;;;;;;;;5054306;28;20045;-86
2021/08/30 00:19:33;;;;;;;23.25;15.52;;;;;;;;;;5071267;28;20044;-85
2021/08/30 00:21:59;;;;;;;20.88;15.27;;;;;;;;;;5070637;28;20761;-85
2021/08/30 00:24:25;;;;;;;21.17;14.02;;;;;;;;;;5071956;28;20044;-85
2021/08/30 00:26:52;;;;;;;20.02;14.73;;;;;;;;;;5070750;28;20431;-85
2021/08/30 00:29:24;;;;;;;23.88;13.93;;;;;;;;;;5070490;28;20067;-85
2021/08/30 00:31:51;;;;;;;20.08;14.55;;;;;;;;;;5070434;28;20054;-85
2021/08/30 00:34:17;;;;;;;22.08;14.65;;;;;;;;;;5070651;28;20059;-85
2021/08/30 00:36:43;;;;;;;22.70;14.20;;;;;;;;;;5053698;28;20087;-88
2021/08/30 00:39:09;;;;;;;21.13;14.05;;;;;;;;;;5071009;28;20052;-85
2021/08/30 00:41:35;;;;;;;20.50;14.45;;;;;;;;;;5070771;28;20067;-85
2021/08/30 00:44:01;;;;;;;22.35;14.18;;;;;;;;;;5052550;28;20105;-85
2021/08/30 00:46:27;;;;;;;22.65;13.65;;;;;;;;;;5071561;28;20055;-85
2021/08/30 00:48:53;;;;;;;19.27;13.75;;;;;;;;;;5070666;28;20059;-85
2021/08/30 00:51:21;;;;;;;18.23;11.85;;;;;;;;;;5059551;28;20491;-87
2021/08/30 00:53:51;;;;;;;17.90;12.25;;;;;;;;;;5067272;28;20044;-85
2021/08/30 00:56:18;;;;;;;18.52;11.75;;;;;;;;;;5085578;28;20052;-85
2021/08/30 00:58:44;;;;;;;23.95;11.65;;;;;;;;;;5059670;28;20040;-91
2021/08/30 01:01:10;;;;;;;21.73;12.23;;;;;;;;;;5084066;28;20036;-85
2021/08/30 01:03:37;;;;;;;22.30;13.43;;;;;;;;;;5084186;28;20123;-85
2021/08/30 01:06:07;;;;;;;18.52;12.07;;;;;;;;;;5081462;28;20060;-85
2021/08/30 01:08:35;;;;;;;22.02;13.00;;;;;;;;;;5079099;28;20051;-84
2021/08/30 01:11:07;;;;;;;23.98;13.18;;;;;;;;;;5079133;28;20033;-85
2021/08/30 01:13:37;;;;;;;19.58;12.80;;;;;;;;;;5076940;28;20419;-85
2021/08/30 01:16:04;;;;;;;19.58;12.85;;;;;;;;;;5081485;28;20251;-85
2021/08/30 01:18:32;;;;;;;21.27;13.45;;;;;;;;;;5066155;28;20094;-85
2021/08/30 01:21:16;;;;;;;20.02;12.77;;;;;;;;;;5084252;28;20076;-85
2021/08/30 01:23:44;;;;;;;23.77;13.32;;;;;;;;;;5080369;28;20075;-90
2021/08/30 01:26:12;;;;;;;23.70;13.50;;;;;;;;;;5077381;28;20076;-88
2021/08/30 01:28:41;;;;;;;26.50;13.77;;;;;;;;;;5081590;28;20411;-85
2021/08/30 01:31:12;;;;;;;20.83;13.18;;;;;;;;;;5077615;28;20040;-85
2021/08/30 01:33:39;;;;;;;20.45;12.95;;;;;;;;;;5073740;28;20062;-85
2021/08/30 01:36:06;;;;;;;24.90;13.93;;;;;;;;;;5077454;28;20123;-85
2021/08/30 01:38:32;;;;;;;21.02;12.98;;;;;;;;;;5081036;28;20504;-86
2021/08/30 01:40:59;;;;;;;23.13;13.27;;;;;;;;;;5083232;28;20050;-85
2021/08/30 01:43:25;;;;;;;21.40;13.45;;;;;;;;;;5083484;28;20048;-85
2021/08/30 01:45:51;;;;;;;24.23;13.18;;;;;;;;;;5084460;28;20040;-86
2021/08/30 01:48:18;;;;;;;24.17;14.43;;;;;;;;;;5064158;28;20056;-85
2021/08/30 01:50:45;;;;;;;27.30;14.90;;;;;;;;;;5069791;28;20056;-90
2021/08/30 01:53:11;;;;;;;22.80;15.07;;;;;;;;;;5051203;28;20076;-88
2021/08/30 02:03:10;;;;;;;25.33;15.02;;;;;;;;;;5069215;28;20095;-86
2021/08/30 02:05:37;;;;;;;27.23;16.73;;;;;;;;;;5073557;28;20055;-85
2021/08/30 02:08:03;;;;;;;28.02;16.65;;;;;;;;;;5073149;28;20044;-85
2021/08/30 02:10:29;;;;;;;26.00;17.10;;;;;;;;;;5072876;28;20044;-85
2021/08/30 02:12:55;;;;;;;29.00;18.45;;;;;;;;;;5072878;28;20170;-85
2021/08/30 02:15:22;;;;;;;29.35;17.42;;;;;;;;;;5074430;28;20048;-86
2021/08/30 02:17:49;;;;;;;29.55;18.13;;;;;;;;;;5073874;28;20037;-85
2021/08/30 02:20:18;;;;;;;29.88;17.58;;;;;;;;;;5074050;28;20102;-85
2021/08/30 02:22:44;;;;;;;27.35;17.80;;;;;;;;;;5067538;28;20044;-91
2021/08/30 02:25:15;;;;;;;34.70;19.77;;;;;;;;;;5056227;28;20063;-86
2021/08/30 02:27:44;;;;;;;32.25;19.13;;;;;;;;;;5073854;28;20044;-90
2021/08/30 02:30:11;;;;;;;32.78;19.25;;;;;;;;;;5072989;28;20040;-85
2021/08/30 02:32:38;;;;;;;34.65;19.38;;;;;;;;;;5073094;28;20044;-85
2021/08/30 02:35:06;;;;;;;28.60;18.42;;;;;;;;;;5072456;28;20106;-86
2021/08/30 02:37:34;;;;;;;28.15;17.48;;;;;;;;;;5056447;28;20396;-86
2021/08/30 02:40:01;;;;;;;34.33;18.63;;;;;;;;;;5072374;28;20052;-86
2021/08/30 02:42:29;;;;;;;32.70;18.25;;;;;;;;;;5071562;28;20498;-85
2021/08/30 02:44:56;;;;;;;32.28;17.92;;;;;;;;;;5072655;28;20059;-85
2021/08/30 02:47:23;;;;;;;31.70;18.92;;;;;;;;;;5055979;28;20136;-85
2021/08/30 02:49:50;;;;;;;28.40;17.33;;;;;;;;;;5071467;28;20055;-85
2021/08/30 02:52:17;;;;;;;28.20;16.65;;;;;;;;;;5072957;28;20059;-86
2021/08/30 02:54:44;;;;;;;27.63;15.95;;;;;;;;;;5069197;28;20048;-90
2021/08/30 02:57:11;;;;;;;29.05;16.80;;;;;;;;;;5072309;28;20120;-85
2021/08/30 02:59:37;;;;;;;22.17;14.57;;;;;;;;;;5072538;28;20388;-85
2021/08/30 03:02:03;;;;;;;26.90;15.90;;;;;;;;;;5072807;28;20244;-85
2021/08/30 03:04:30;;;;;;;25.70;15.75;;;;;;;;;;5073692;28;20051;-85
2021/08/30 03:06:57;;;;;;;26.55;15.90;;;;;;;;;;5054748;28;20382;-85
2021/08/30 03:09:23;;;;;;;26.75;16.65;;;;;;;;;;5072404;28;20370;-85
2021/08/30 03:11:50;;;;;;;26.27;15.82;;;;;;;;;;5072054;28;20063;-85
2021/08/30 03:14:16;;;;;;;33.80;16.92;;;;;;;;;;5071667;28;20039;-85
2021/08/30 03:16:42;;;;;;;29.42;15.05;;;;;;;;;;5072484;28;20416;-89
2021/08/30 03:19:11;;;;;;;31.02;16.13;;;;;;;;;;5071981;28;20048;-86
2021/08/30 03:21:38;;;;;;;28.63;16.48;;;;;;;;;;5095332;28;20529;-86
2021/08/30 03:24:05;;;;;;;24.98;15.35;;;;;;;;;;5071716;28;20533;-85
2021/08/30 03:26:32;;;;;;;27.08;15.85;;;;;;;;;;5072081;28;20106;-85
2021/08/30 03:28:58;;;;;;;31.23;16.30;;;;;;;;;;5071749;28;20040;-85
2021/08/30 03:31:27;;;;;;;30.08;16.75;;;;;;;;;;5073157;28;20204;-86
2021/08/30 03:33:53;;;;;;;29.48;16.92;;;;;;;;;;5071493;28;20041;-85
2021/08/30 03:36:19;;;;;;;24.30;16.02;;;;;;;;;;5071949;28;20041;-85
2021/08/30 03:38:45;;;;;;;26.88;15.68;;;;;;;;;;5071444;28;20048;-91
2021/08/30 03:41:12;;;;;;;27.73;16.90;;;;;;;;;;5071673;28;20032;-86
2021/08/30 03:43:39;;;;;;;28.17;16.08;;;;;;;;;;5071823;28;20055;-84
2021/08/30 03:46:05;;;;;;;24.73;14.65;;;;;;;;;;5071379;28;20558;-85
2021/08/30 03:48:32;;;;;;;25.75;14.40;;;;;;;;;;5071791;28;20064;-85
2021/08/30 03:50:58;;;;;;;28.13;15.40;;;;;;;;;;5112575;28;20092;-86
2021/08/30 03:53:25;;;;;;;33.38;15.85;;;;;;;;;;5113322;28;20051;-86
2021/08/30 03:55:51;;;;;;;29.20;14.82;;;;;;;;;;5094405;28;20040;-85
2021/08/30 03:58:18;;;;;;;29.10;16.45;;;;;;;;;;5078065;28;20055;-85
2021/08/30 04:00:45;;;;;;;26.23;15.52;;;;;;;;;;5094439;28;20172;-90
2021/08/30 04:03:13;;;;;;;26.73;13.90;;;;;;;;;;5094501;28;20096;-88
2021/08/30 04:05:40;;;;;;;26.45;15.23;;;;;;;;;;5094096;28;20051;-85
2021/08/30 04:08:09;;;;;;;25.38;14.95;;;;;;;;;;5091672;28;20337;-85
2021/08/30 04:10:36;;;;;;;27.27;13.93;;;;;;;;;;5093381;28;20113;-85
2021/08/30 04:13:03;;;;;;;25.98;15.13;;;;;;;;;;5094535;28;20058;-85
2021/08/30 04:15:30;;;;;;;30.17;14.63;;;;;;;;;;5094986;28;20380;-85
2021/08/30 04:17:56;;;;;;;32.35;15.68;;;;;;;;;;5076296;28;20035;-85
2021/08/30 04:20:22;;;;;;;27.65;13.95;;;;;;;;;;5093761;28;20483;-84
2021/08/30 04:22:48;;;;;;;30.77;15.90;;;;;;;;;;5075993;28;20048;-88
2021/08/30 04:25:14;;;;;;;27.00;15.13;;;;;;;;;;5093389;28;20040;-85
2021/08/30 04:27:40;;;;;;;29.42;15.23;;;;;;;;;;5111152;28;20040;-84
2021/08/30 04:30:07;;;;;;;25.40;15.25;;;;;;;;;;5092885;28;20604;-86
2021/08/30 04:32:36;;;;;;;33.47;16.33;;;;;;;;;;5093589;28;20089;-85
2021/08/30 04:35:02;;;;;;;26.85;14.27;;;;;;;;;;5076451;28;20109;-86
2021/08/30 04:37:28;;;;;;;32.53;15.60;;;;;;;;;;5074818;28;20079;-84
2021/08/30 04:39:54;;;;;;;23.85;14.50;;;;;;;;;;5091608;28;20044;-84
2021/08/30 04:42:21;;;;;;;29.58;15.68;;;;;;;;;;5075697;28;20049;-83
2021/08/30 04:44:47;;;;;;;26.42;15.63;;;;;;;;;;5075583;28;20057;-87
2021/08/30 04:47:13;;;;;;;24.90;13.88;;;;;;;;;;5092701;28;20075;-83
2021/08/30 04:49:39;;;;;;;23.98;15.32;;;;;;;;;;5092931;27;20047;-84
2021/08/30 04:52:06;;;;;;;28.45;15.30;;;;;;;;;;5093541;28;20047;-83
2021/08/30 04:54:32;;;;;;;29.83;15.45;;;;;;;;;;5094327;28;20040;-83
2021/08/30 04:56:58;;;;;;;21.80;13.25;;;;;;;;;;5076256;28;20052;-83
2021/08/30 04:59:24;;;;;;;26.25;13.82;;;;;;;;;;5112528;28;20047;-84
2021/08/30 05:01:50;;;;;;;21.27;13.88;;;;;;;;;;5094930;28;20047;-84
2021/08/30 05:04:16;;;;;;;27.08;13.93;;;;;;;;;;5114919;27;20183;-84
2021/08/30 05:06:42;;;;;;;23.88;13.25;;;;;;;;;;5096501;28;20511;-84
2021/08/30 05:09:08;;;;;;;25.50;13.25;;;;;;;;;;5094558;28;20147;-87
2021/08/30 05:11:37;;;;;;;23.50;13.15;;;;;;;;;;5096469;28;20043;-86
2021/08/30 05:14:29;;;;;;;22.60;12.88;;;;;;;;;;5079581;28;20051;-87
2021/08/30 05:20:22;;;;;;;17.42;11.80;;;;;;;;;;5113913;28;20084;-87
2021/08/30 05:22:48;;;;;;;20.25;12.40;;;;;;;;;;5079311;28;20142;-87
2021/08/30 05:25:15;;;;;;;26.80;13.13;;;;;;;;;;5079614;28;20047;-87
2021/08/30 05:27:44;;;;;;;22.33;12.48;;;;;;;;;;5096033;28;20506;-87
2021/08/30 05:33:36;;;;;;;24.27;12.07;;;;;;;;;;5113859;28;20510;-87
2021/08/30 05:39:54;;;;;;;18.23;10.77;;;;;;;;;;5117877;28;20046;-86
2021/08/30 05:42:20;;;;;;;19.35;11.55;;;;;;;;;;5100805;28;20048;-86
2021/08/30 05:44:46;;;;;;;21.65;13.27;;;;;;;;;;5082795;28;20051;-86
2021/08/30 05:47:12;;;;;;;23.90;11.55;;;;;;;;;;5100214;28;20048;-88
2021/08/30 05:50:11;;;;;;;21.20;11.57;;;;;;;;;;5095077;28;20060;-87
2021/08/30 05:52:38;;;;;;;20.50;11.63;;;;;;;;;;5080339;28;20052;-89
2021/08/30 05:55:04;;;;;;;19.90;10.93;;;;;;;;;;5079512;28;20182;-86
2021/08/30 05:57:38;;;;;;;21.33;12.18;;;;;;;;;;5079460;28;20131;-86
2021/08/30 06:03:50;;;;;;;19.63;11.70;;;;;;;;;;5097115;28;20031;-86
2021/08/30 06:06:36;;;;;;;24.17;12.93;;;;;;;;;;5096845;28;20071;-89
2021/08/30 06:09:02;;;;;;;21.00;12.05;;;;;;;;;;5093819;28;20044;-87
2021/08/30 06:11:28;;;;;;;18.65;11.25;;;;;;;;;;5094397;28;20177;-82
2021/08/30 06:13:55;;;;;;;18.27;11.77;;;;;;;;;;5073807;28;20420;-83
2021/08/30 06:16:21;;;;;;;19.02;11.10;;;;;;;;;;5075032;28;20052;-85
2021/08/30 06:19:05;;;;;;;22.83;11.80;;;;;;;;;;5074126;28;20051;-86
2021/08/30 06:21:32;;;;;;;21.05;10.88;;;;;;;;;;5073923;28;20486;-85
2021/08/30 06:23:58;;;;;;;22.98;11.57;;;;;;;;;;5072951;28;20045;-85
2021/08/30 06:26:24;;;;;;;22.30;12.40;;;;;;;;;;5073304;28;20377;-85
2021/08/30 06:28:50;;;;;;;23.63;11.77;;;;;;;;;;5087550;28;20051;-86
2021/08/30 06:31:16;;;;;;;19.30;11.00;;;;;;;;;;5094082;28;20219;-84
2021/08/30 06:33:42;;;;;;;16.85;10.75;;;;;;;;;;5095004;28;20044;-85
2021/08/30 06:36:09;;;;;;;21.10;10.85;;;;;;;;;;5076423;28;20040;-85
2021/08/30 06:38:35;;;;;;;18.40;9.95;;;;;;;;;;5093623;28;20502;-85
2021/08/30 06:41:01;;;;;;;19.58;10.07;;;;;;;;;;5094183;28;20048;-86
2021/08/30 06:43:27;;;;;;;17.52;11.23;;;;;;;;;;5093868;28;20094;-85
2021/08/30 06:45:54;;;;;;;21.70;11.20;;;;;;;;;;5076293;28;20063;-85
2021/08/30 06:48:20;;;;;;;19.90;10.57;;;;;;;;;;5093479;28;20051;-85
2021/08/30 06:50:46;;;;;;;16.95;10.35;;;;;;;;;;5093276;28;20055;-87
2021/08/30 06:53:13;;;;;;;19.98;10.65;;;;;;;;;;5094412;28;20048;-88
2021/08/30 06:55:39;;;;;;;16.85;10.25;;;;;;;;;;5095079;28;20051;-87
2021/08/30 06:58:05;;;;;;;14.50;10.18;;;;;;;;;;5063938;28;20040;-85
2021/08/30 07:00:31;;;;;;;19.20;11.07;;;;;;;;;;5072691;28;20074;-84
2021/08/30 07:02:57;;;;;;;19.50;11.20;;;;;;;;;;5072239;28;20102;-85
2021/08/30 07:05:23;;;;;;;19.00;10.85;;;;;;;;;;5073703;28;20051;-84
2021/08/30 07:07:49;;;;;;;15.45;10.60;;;;;;;;;;5073861;28;20089;-90
2021/08/30 07:10:15;;;;;;;18.30;10.57;;;;;;;;;;5072883;28;20080;-85
2021/08/30 07:12:41;;;;;;;17.35;10.45;;;;;;;;;;5072991;28;20045;-85
2021/08/30 07:15:08;;;;;;;19.05;10.57;;;;;;;;;;5072446;28;20048;-85
2021/08/30 07:17:34;;;;;;;16.02;10.80;;;;;;;;;;5073152;28;20059;-83
2021/08/30 07:20:00;;;;;;;17.85;10.52;;;;;;;;;;5072082;28;20105;-83
2021/08/30 07:22:26;;;;;;;19.90;11.40;;;;;;;;;;5073121;28;20049;-83
2021/08/30 07:24:52;;;;;;;18.15;10.98;;;;;;;;;;5072239;28;20045;-85
2021/08/30 07:27:18;;;;;;;17.80;10.02;;;;;;;;;;5073028;28;20044;-83
2021/08/30 07:29:44;;;;;;;15.98;10.35;;;;;;;;;;5073825;28;20047;-85
2021/08/30 07:32:10;;;;;;;15.98;10.68;;;;;;;;;;5055531;28;20044;-83
2021/08/30 07:34:37;;;;;;;18.13;11.13;;;;;;;;;;5056268;28;20058;-83
2021/08/30 07:37:03;;;;;;;17.17;10.65;;;;;;;;;;5071831;28;20036;-86
2021/08/30 07:39:29;;;;;;;18.13;11.07;;;;;;;;;;5072266;28;20472;-85
2021/08/30 07:41:55;;;;;;;17.70;11.02;;;;;;;;;;5072092;28;20080;-85
2021/08/30 07:44:22;;;;;;;16.98;11.55;;;;;;;;;;5072513;28;20052;-84
2021/08/30 07:46:48;;;;;;;17.30;11.13;;;;;;;;;;5072535;28;20048;-91
2021/08/30 07:49:17;;;;;;;14.70;10.98;;;;;;;;;;5083041;28;20063;-84
2021/08/30 07:51:44;;;;;;;14.15;10.30;;;;;;;;;;5094983;28;20131;-85
2021/08/30 07:54:10;;;;;;;18.10;11.18;;;;;;;;;;5085351;28;20043;-84
2021/08/30 07:56:38;;;;;;;16.63;10.57;;;;;;;;;;5109604;28;20075;-84
2021/08/30 07:59:04;;;;;;;15.55;9.77;;;;;;;;;;5091481;28;20083;-84
2021/08/30 08:01:30;;;;;;;14.52;10.35;;;;;;;;;;5078750;28;20364;-84
2021/08/30 08:03:57;;;;;;;16.85;11.15;;;;;;;;;;5095167;28;20487;-84
2021/08/30 08:06:23;;;;;;;17.05;10.32;;;;;;;;;;5095209;28;20396;-84
2021/08/30 08:08:49;;;;;;;19.60;10.48;;;;;;;;;;5078212;28;20051;-89
2021/08/30 08:11:15;;;;;;;15.65;10.18;;;;;;;;;;5094999;28;20079;-84
2021/08/30 08:13:41;;;;;;;13.68;9.57;;;;;;;;;;5095349;28;20493;-84
2021/08/30 08:16:08;;;;;;;13.77;9.93;;;;;;;;;;5112851;28;20047;-84
2021/08/30 08:18:34;;;;;;;16.52;9.50;;;;;;;;;;5095935;28;20118;-83
2021/08/30 08:21:02;;;;;;;17.45;10.18;;;;;;;;;;5094899;28;20119;-84
2021/08/30 08:23:28;;;;;;;14.38;9.25;;;;;;;;;;5113479;28;20047;-84
2021/08/30 08:25:54;;;;;;;11.93;8.63;;;;;;;;;;5094853;28;20047;-83
2021/08/30 08:28:20;;;;;;;14.77;9.77;;;;;;;;;;5095033;28;20044;-84
2021/08/30 08:30:47;;;;;;;14.23;9.13;;;;;;;;;;5113009;28;20046;-84
2021/08/30 08:33:13;;;;;;;18.48;10.50;;;;;;;;;;5077742;28;20051;-84
2021/08/30 08:35:42;;;;;;;14.93;9.00;;;;;;;;;;5095093;28;20052;-84
2021/08/30 08:38:09;;;;;;;14.48;9.20;;;;;;;;;;5094288;28;20043;-83
2021/08/30 08:40:35;;;;;;;13.07;9.43;;;;;;;;;;5112908;28;20035;-84
2021/08/30 08:43:01;;;;;;;11.82;8.80;;;;;;;;;;5094042;28;20491;-86
2021/08/30 08:45:28;;;;;;;11.55;8.10;;;;;;;;;;5078119;28;20376;-83
2021/08/30 08:47:54;;;;;;;12.85;8.35;;;;;;;;;;5094555;28;20052;-85
2021/08/30 08:50:22;;;;;;;11.18;8.10;;;;;;;;;;5090903;28;20055;-84
2021/08/30 08:52:49;;;;;;;11.48;7.53;;;;;;;;;;5091358;28;20040;-87
2021/08/30 08:55:15;;;;;;;10.60;7.70;;;;;;;;;;5071105;28;20048;-84
2021/08/30 08:57:43;;;;;;;10.93;8.25;;;;;;;;;;5076661;28;20048;-84
2021/08/30 09:00:13;;;;;;;10.85;7.53;;;;;;;;;;5090538;28;20649;-83
2021/08/30 09:02:39;;;;;;;13.98;8.27;;;;;;;;;;5091489;28;20043;-84
2021/08/30 09:05:06;;;;;;;9.18;7.13;;;;;;;;;;5089837;28;20123;-84
2021/08/30 09:07:38;;;;;;;11.90;7.75;;;;;;;;;;5091340;28;20392;-84
2021/08/30 09:10:05;;;;;;;10.70;7.50;;;;;;;;;;5090507;28;20044;-83
2021/08/30 09:12:31;;;;;;;12.52;7.72;;;;;;;;;;5090974;28;20044;-84
2021/08/30 09:14:57;;;;;;;12.25;7.18;;;;;;;;;;5091663;28;20122;-84
2021/08/30 09:17:24;;;;;;;12.40;7.53;;;;;;;;;;5091353;28;20130;-83
2021/08/30 09:19:54;;;;;;;11.65;7.88;;;;;;;;;;5091125;28;20051;-88
2021/08/30 09:22:34;;;;;;;10.20;7.60;;;;;;;;;;5092037;28;20052;-84
2021/08/30 09:25:05;;;;;;;9.10;7.45;;;;;;;;;;5090887;28;20055;-86
2021/08/30 09:27:35;;;;;;;9.85;7.68;;;;;;;;;;5091893;28;20098;-84
2021/08/30 09:30:06;;;;;;;9.88;6.78;;;;;;;;;;5074483;28;20084;-85
2021/08/30 09:32:34;;;;;;;10.07;7.28;;;;;;;;;;5075180;28;20044;-84
2021/08/30 09:35:02;;;;;;;9.48;7.03;;;;;;;;;;5074395;28;20044;-85
2021/08/30 09:37:28;;;;;;;10.80;7.85;;;;;;;;;;5091432;28;20130;-84
2021/08/30 09:39:59;;;;;;;7.97;6.25;;;;;;;;;;5091134;28;20480;-84
2021/08/30 09:42:26;;;;;;;10.98;6.88;;;;;;;;;;5091157;28;20040;-84
2021/08/30 09:44:54;;;;;;;9.73;6.57;;;;;;;;;;5074552;28;20062;-90
2021/08/30 09:47:21;;;;;;;11.13;6.88;;;;;;;;;;5076184;28;20059;-84
2021/08/30 09:49:49;;;;;;;8.75;7.03;;;;;;;;;;5061473;28;20056;-84
2021/08/30 09:52:15;;;;;;;9.85;6.93;;;;;;;;;;5064155;28;20052;-84
2021/08/30 09:54:41;;;;;;;9.02;6.68;;;;;;;;;;5071216;28;20106;-84
2021/08/30 09:57:07;;;;;;;11.25;7.35;;;;;;;;;;5071178;28;20080;-83
2021/08/30 09:59:33;;;;;;;8.55;6.72;;;;;;;;;;5071451;28;20515;-84
2021/08/30 10:02:03;;;;;;;10.10;6.50;;;;;;;;;;5071748;28;20425;-84
2021/08/30 10:04:30;;;;;;;8.50;6.40;;;;;;;;;;5071848;28;20050;-86
2021/08/30 10:06:56;;;;;;;8.93;6.45;;;;;;;;;;5072562;28;20047;-86
2021/08/30 10:09:22;;;;;;;8.13;6.90;;;;;;;;;;5071368;28;20056;-84
2021/08/30 10:11:54;;;;;;;8.82;7.10;;;;;;;;;;5071457;28;20068;-84
2021/08/30 10:14:24;;;;;;;10.18;7.25;;;;;;;;;;5070970;28;20048;-85
2021/08/30 10:16:51;;;;;;;9.00;6.85;;;;;;;;;;5066815;28;20052;-85
2021/08/30 10:19:31;;;;;;;10.63;6.95;;;;;;;;;;5053669;28;20055;-87
2021/08/30 10:21:58;;;;;;;8.65;6.45;;;;;;;;;;5052845;28;20053;-87
2021/08/30 10:24:25;;;;;;;9.10;6.97;;;;;;;;;;5070656;28;20496;-86
2021/08/30 10:26:51;;;;;;;9.07;6.70;;;;;;;;;;5058111;28;20059;-88
2021/08/30 10:29:18;;;;;;;8.57;7.05;;;;;;;;;;5074153;28;20044;-86
2021/08/30 10:31:51;;;;;;;9.02;7.00;;;;;;;;;;5058316;28;20060;-85
2021/08/30 10:34:28;;;;;;;8.25;7.10;;;;;;;;;;5074160;28;20106;-86
2021/08/30 10:36:55;;;;;;;9.63;6.65;;;;;;;;;;5074065;28;20055;-87
2021/08/30 10:39:22;;;;;;;6.80;5.80;;;;;;;;;;5074904;28;20396;-85
2021/08/30 10:41:49;;;;;;;8.93;6.80;;;;;;;;;;5074378;28;20044;-86
2021/08/30 10:44:15;;;;;;;8.90;6.85;;;;;;;;;;5074144;28;20058;-86
2021/08/30 10:46:48;;;;;;;9.95;7.07;;;;;;;;;;5074473;28;20048;-84
2021/08/30 10:49:19;;;;;;;8.15;6.70;;;;;;;;;;5073876;28;20056;-86
2021/08/30 10:51:46;;;;;;;10.85;7.70;;;;;;;;;;5074262;28;20052;-86
2021/08/30 10:54:14;;;;;;;11.50;7.35;;;;;;;;;;5073711;28;20409;-85
2021/08/30 10:56:41;;;;;;;9.98;7.18;;;;;;;;;;5057447;28;20053;-87
2021/08/30 10:59:07;;;;;;;9.15;6.78;;;;;;;;;;5074174;28;20056;-87
2021/08/30 11:01:34;;;;;;;8.68;6.07;;;;;;;;;;5074164;28;20056;-86
2021/08/30 11:04:01;;;;;;;9.88;6.88;;;;;;;;;;5057710;28;20090;-87
2021/08/30 11:06:27;;;;;;;9.98;6.43;;;;;;;;;;5059640;28;20054;-86
2021/08/30 11:08:53;;;;;;;10.45;6.68;;;;;;;;;;5074100;28;20048;-86
2021/08/30 11:11:24;;;;;;;9.07;6.63;;;;;;;;;;5074448;28;20040;-86
2021/08/30 11:14:08;;;;;;;8.98;7.28;;;;;;;;;;5056925;28;20082;-84
2021/08/30 11:16:36;;;;;;;7.63;6.35;;;;;;;;;;5074436;28;20044;-86
2021/08/30 11:19:02;;;;;;;7.72;6.28;;;;;;;;;;5056586;28;20080;-86
2021/08/30 11:21:34;;;;;;;8.85;5.80;;;;;;;;;;5056541;28;20056;-84
2021/08/30 11:24:01;;;;;;;8.38;6.03;;;;;;;;;;5072717;28;20400;-85
2021/08/30 11:26:27;;;;;;;7.65;5.20;;;;;;;;;;5073749;28;20105;-84
2021/08/30 11:28:55;;;;;;;7.65;5.10;;;;;;;;;;5056207;28;20397;-90
2021/08/30 11:31:22;;;;;;;10.90;5.97;;;;;;;;;;5072480;28;20036;-86
2021/08/30 11:33:48;;;;;;;8.57;5.13;;;;;;;;;;5073086;28;20397;-85
2021/08/30 11:36:16;;;;;;;8.13;5.25;;;;;;;;;;5055368;28;20145;-84
2021/08/30 11:38:51;;;;;;;7.60;5.22;;;;;;;;;;5072788;28;20374;-85
2021/08/30 11:41:17;;;;;;;8.07;5.45;;;;;;;;;;5055587;28;20064;-84
2021/08/30 11:43:43;;;;;;;8.27;6.07;;;;;;;;;;5072172;28;20041;-84
2021/08/30 11:46:09;;;;;;;5.97;5.15;;;;;;;;;;5071945;28;20091;-84
2021/08/30 11:48:35;;;;;;;7.88;5.78;;;;;;;;;;5072590;28;20481;-84
2021/08/30 11:51:05;;;;;;;8.38;5.90;;;;;;;;;;5084146;28;20155;-85
2021/08/30 11:53:32;;;;;;;8.50;6.15;;;;;;;;;;5072495;28;20052;-83
2021/08/30 11:55:58;;;;;;;8.63;6.20;;;;;;;;;;5055506;28;20104;-88
2021/08/30 11:58:33;;;;;;;7.45;5.25;;;;;;;;;;5048325;28;20063;-86
2021/08/30 12:01:03;;;;;;;11.98;5.60;;;;;;;;;;5056683;28;20104;-87
2021/08/30 12:03:43;;;;;;;6.63;4.93;;;;;;;;;;5073292;28;20136;-86
2021/08/30 12:06:16;;;;;;;7.75;5.70;;;;;;;;;;5072866;28;20041;-86
2021/08/30 12:08:52;;;;;;;9.98;5.80;;;;;;;;;;5055624;28;20040;-86
2021/08/30 12:11:19;;;;;;;13.10;6.28;;;;;;;;;;5072232;28;20097;-90
2021/08/30 12:16:27;;;;;;;7.70;6.22;;;;;;;;;;5090763;28;20048;-88
2021/08/30 12:18:55;;;;;;;9.63;6.72;;;;;;;;;;5074305;28;20051;-88
2021/08/30 12:21:37;;;;;;;10.38;6.60;;;;;;;;;;5091067;28;20056;-86
2021/08/30 12:24:04;;;;;;;7.28;5.70;;;;;;;;;;5090252;28;20054;-86
2021/08/30 12:26:30;;;;;;;8.23;7.00;;;;;;;;;;5074193;28;20177;-87
2021/08/30 12:29:00;;;;;;;8.32;6.18;;;;;;;;;;5054038;28;20076;-88
2021/08/30 12:31:34;;;;;;;8.63;6.30;;;;;;;;;;5050620;28;20051;-86
2021/08/30 12:34:01;;;;;;;8.40;6.07;;;;;;;;;;5053448;28;20113;-87
2021/08/30 12:36:30;;;;;;;8.10;5.70;;;;;;;;;;5070182;28;20044;-86
2021/08/30 12:38:57;;;;;;;7.50;6.03;;;;;;;;;;5053547;28;20048;-88
2021/08/30 12:41:23;;;;;;;8.80;6.40;;;;;;;;;;5050658;28;20041;-87
2021/08/30 12:43:49;;;;;;;9.45;6.22;;;;;;;;;;5034247;28;20048;-87
2021/08/30 12:46:15;;;;;;;7.03;6.03;;;;;;;;;;5033046;28;20201;-87
2021/08/30 12:48:42;;;;;;;7.22;5.50;;;;;;;;;;5033888;28;20493;-87
2021/08/30 12:51:08;;;;;;;7.05;5.85;;;;;;;;;;5072723;28;20050;-87
2021/08/30 12:53:35;;;;;;;8.52;6.40;;;;;;;;;;5093798;28;20047;-87
2021/08/30 12:56:01;;;;;;;9.32;6.28;;;;;;;;;;5093149;28;20078;-86
2021/08/30 12:58:27;;;;;;;9.45;6.20;;;;;;;;;;5077280;28;20046;-85
2021/08/30 13:00:53;;;;;;;9.40;6.20;;;;;;;;;;5094158;28;20108;-87
2021/08/30 13:03:20;;;;;;;6.72;6.03;;;;;;;;;;5093026;28;20048;-86
2021/08/30 13:05:47;;;;;;;7.78;5.78;;;;;;;;;;5075794;28;20047;-84
2021/08/30 13:08:14;;;;;;;8.98;6.05;;;;;;;;;;5081689;28;20067;-82
2021/08/30 13:10:41;;;;;;;7.10;6.40;;;;;;;;;;5081904;28;20071;-84
2021/08/30 13:13:09;;;;;;;9.70;6.63;;;;;;;;;;5099958;28;20443;-84
2021/08/30 13:15:35;;;;;;;10.27;6.60;;;;;;;;;;5076976;28;20078;-84
2021/08/30 13:18:02;;;;;;;6.35;5.57;;;;;;;;;;5092861;28;20055;-87
2021/08/30 13:20:28;;;;;;;7.68;5.82;;;;;;;;;;5094116;28;20109;-84
2021/08/30 13:22:54;;;;;;;10.95;6.20;;;;;;;;;;5077419;28;20047;-86
2021/08/30 13:25:22;;;;;;;7.25;6.18;;;;;;;;;;5073965;28;20052;-85
2021/08/30 13:27:53;;;;;;;9.00;6.45;;;;;;;;;;5073703;28;20138;-84
2021/08/30 13:30:20;;;;;;;8.20;6.07;;;;;;;;;;5090564;28;20047;-84
2021/08/30 13:32:47;;;;;;;8.50;6.57;;;;;;;;;;5093983;28;20051;-84
2021/08/30 13:35:14;;;;;;;8.32;6.35;;;;;;;;;;5076048;28;20309;-85
2021/08/30 13:37:40;;;;;;;8.57;7.10;;;;;;;;;;5093940;28;20618;-85
2021/08/30 13:40:07;;;;;;;14.07;7.80;;;;;;;;;;5076297;28;20051;-83
2021/08/30 13:42:33;;;;;;;8.95;7.18;;;;;;;;;;5077008;28;20169;-83
2021/08/30 13:44:59;;;;;;;8.25;6.93;;;;;;;;;;5093173;28;20053;-84
2021/08/30 13:47:25;;;;;;;9.30;7.03;;;;;;;;;;5077455;28;20083;-82
2021/08/30 13:49:55;;;;;;;7.40;6.30;;;;;;;;;;5093199;28;20499;-83
2021/08/30 13:52:21;;;;;;;7.32;6.30;;;;;;;;;;5092934;28;20523;-84
2021/08/30 13:54:47;;;;;;;8.23;6.38;;;;;;;;;;5094046;28;20043;-84
2021/08/30 13:57:13;;;;;;;10.05;6.63;;;;;;;;;;5076090;28;20048;-83
2021/08/30 13:59:40;;;;;;;7.43;6.28;;;;;;;;;;5078838;28;20428;-84
2021/08/30 14:02:07;;;;;;;7.68;6.68;;;;;;;;;;5096918;28;20079;-85
2021/08/30 14:04:33;;;;;;;8.30;7.07;;;;;;;;;;5097301;28;20044;-85
2021/08/30 14:06:59;;;;;;;10.75;6.47;;;;;;;;;;5079069;28;20096;-89
2021/08/30 14:09:26;;;;;;;9.27;6.85;;;;;;;;;;5097489;28;20075;-85
2021/08/30 14:11:52;;;;;;;8.57;6.75;;;;;;;;;;5080757;28;20115;-84
2021/08/30 14:14:18;;;;;;;8.23;6.82;;;;;;;;;;5079985;28;20104;-85
2021/08/30 14:16:44;;;;;;;8.95;6.95;;;;;;;;;;5097626;28;20052;-84
2021/08/30 14:19:10;;;;;;;9.65;6.95;;;;;;;;;;5096542;28;20428;-85
2021/08/30 14:21:37;;;;;;;8.88;6.68;;;;;;;;;;5077266;28;20059;-86
2021/08/30 14:24:03;;;;;;;8.90;6.40;;;;;;;;;;5073750;28;20039;-82
2021/08/30 14:26:30;;;;;;;7.30;5.85;;;;;;;;;;5114362;28;20044;-85
2021/08/30 14:28:56;;;;;;;9.60;6.10;;;;;;;;;;5094978;28;20048;-85
2021/08/30 14:31:22;;;;;;;9.85;7.22;;;;;;;;;;5095258;28;20044;-84
2021/08/30 14:33:48;;;;;;;6.88;5.90;;;;;;;;;;5078125;28;20056;-86
2021/08/30 14:36:14;;;;;;;8.48;6.18;;;;;;;;;;5077618;28;20122;-85
2021/08/30 14:38:40;;;;;;;7.28;6.03;;;;;;;;;;5095940;28;20047;-86
2021/08/30 14:41:07;;;;;;;7.45;6.57;;;;;;;;;;5078029;28;20039;-86
2021/08/30 14:43:33;;;;;;;10.18;7.75;;;;;;;;;;5095320;28;20106;-86
2021/08/30 14:46:00;;;;;;;8.10;7.30;;;;;;;;;;5096095;28;20044;-90
2021/08/30 14:48:26;;;;;;;10.13;6.72;;;;;;;;;;5080022;28;20058;-86
2021/08/30 14:50:52;;;;;;;10.35;8.05;;;;;;;;;;5079353;28;20070;-85
2021/08/30 14:53:18;;;;;;;9.65;6.47;;;;;;;;;;5079313;28;20050;-83